Time;durP1;ratioP1;P1;durP2;ratioP2;P2;SDS_P1;SDS_P2;PMS_P1;PMS_P2;Temp;Humidity;BMP_temperature;BMP_pressure;BME280_temperature;BME280_humidity;BME280_pressure;Samples;Min_cycle;Max_cycle;Signal;HPM_P1;HPM_P2
2023/07/30 00:01:11;;;;;;;0.90;0.45;;;;;;;17.30;75.77;100972.50;4972693;28;96656;-27
2023/07/30 00:03:37;;;;;;;1.13;0.47;;;;;;;17.32;75.56;100976.84;4973373;28;96772;-27
2023/07/30 00:06:02;;;;;;;1.17;0.50;;;;;;;17.30;75.72;100980.72;4972702;28;97673;-28
2023/07/30 00:08:28;;;;;;;2.67;0.80;;;;;;;17.33;75.78;100980.47;4971962;28;97884;-26
2023/07/30 00:10:53;;;;;;;1.42;0.45;;;;;;;17.30;75.81;100975.25;4972218;28;96524;-27
2023/07/30 00:13:18;;;;;;;1.23;0.60;;;;;;;17.29;76.31;100977.13;4972642;28;96797;-27
2023/07/30 00:15:47;;;;;;;1.85;0.93;;;;;;;17.29;76.33;100979.00;4972646;28;97434;-27
2023/07/30 00:18:14;;;;;;;1.75;0.63;;;;;;;17.26;76.61;100984.75;4972358;28;98844;-27
2023/07/30 00:20:39;;;;;;;2.90;1.30;;;;;;;17.24;76.86;100981.28;4971362;28;96491;-27
2023/07/30 00:23:04;;;;;;;5.63;0.68;;;;;;;17.19;76.93;100987.16;4972734;28;96943;-27
2023/07/30 00:25:30;;;;;;;3.33;0.90;;;;;;;17.15;77.08;100981.06;4972501;28;97264;-27
2023/07/30 00:27:55;;;;;;;2.55;0.80;;;;;;;17.17;77.60;100979.06;4971966;28;97236;-27
2023/07/30 00:30:21;;;;;;;2.25;0.55;;;;;;;17.14;77.74;100979.34;4972335;28;96595;-26
2023/07/30 00:32:46;;;;;;;2.28;0.77;;;;;;;17.15;77.56;100992.03;4972528;28;96819;-27
2023/07/30 00:35:11;;;;;;;1.63;0.45;;;;;;;17.18;78.07;100993.63;4971935;28;97856;-27
2023/07/30 00:37:37;;;;;;;1.92;0.82;;;;;;;17.18;77.49;100990.88;4972823;28;97196;-27
2023/07/30 00:40:06;;;;;;;2.17;0.93;;;;;;;17.20;77.35;100986.16;4972465;28;96501;-27
2023/07/30 00:42:31;;;;;;;2.17;0.60;;;;;;;17.17;78.14;100991.91;4970992;28;96866;-27
2023/07/30 00:44:56;;;;;;;3.38;1.42;;;;;;;17.16;77.87;100998.34;4972129;28;99168;-26
2023/07/30 00:47:22;;;;;;;2.22;0.68;;;;;;;17.10;78.57;100991.56;4972320;28;97787;-27
2023/07/30 00:49:48;;;;;;;2.13;0.88;;;;;;;17.16;78.53;101001.09;4972168;28;96603;-27
2023/07/30 00:52:18;;;;;;;1.23;0.57;;;;;;;17.15;78.12;100997.50;4971220;28;96895;-27
2023/07/30 00:54:43;;;;;;;1.50;0.60;;;;;;;17.15;78.64;100994.75;4970398;28;102818;-27
2023/07/30 00:57:10;;;;;;;1.85;0.45;;;;;;;17.11;78.81;100996.06;4971838;28;97938;-27
2023/07/30 00:59:35;;;;;;;2.90;0.60;;;;;;;17.12;78.58;101005.13;4970124;28;97028;-27
2023/07/30 01:02:02;;;;;;;4.63;1.25;;;;;;;17.12;79.08;101013.34;4970839;28;96793;-27
2023/07/30 01:04:28;;;;;;;4.43;0.88;;;;;;;17.09;79.29;101011.72;4970506;28;101071;-27
2023/07/30 01:06:54;;;;;;;1.25;0.70;;;;;;;16.95;79.78;100995.63;4971731;28;99201;-30
2023/07/30 01:09:19;;;;;;;1.65;0.52;;;;;;;17.00;79.85;101007.06;4971721;28;96639;-31
2023/07/30 01:11:45;;;;;;;2.08;0.70;;;;;;;17.01;79.27;101008.78;4972506;28;96669;-27
2023/07/30 01:14:14;;;;;;;1.52;0.60;;;;;;;17.04;79.60;101015.84;4970450;28;100723;-28
2023/07/30 01:16:39;;;;;;;4.60;0.85;;;;;;;17.01;79.80;101014.25;4972222;28;97960;-27
2023/07/30 01:19:05;;;;;;;6.78;1.15;;;;;;;17.06;79.55;101017.44;4970491;28;96646;-27
2023/07/30 01:21:36;;;;;;;1.75;0.63;;;;;;;17.08;79.83;101015.44;4974975;28;96777;-27
2023/07/30 01:24:01;;;;;;;3.97;0.95;;;;;;;17.02;80.34;101009.63;4973118;28;101475;-27
2023/07/30 01:26:40;;;;;;;2.53;0.93;;;;;;;17.09;80.42;101017.22;4975046;28;98865;-27
2023/07/30 01:29:29;;;;;;;4.20;0.77;;;;;;;17.04;80.06;101015.84;4973189;28;97220;-27
2023/07/30 01:31:57;;;;;;;1.95;0.70;;;;;;;17.05;80.04;101004.78;4975005;28;96860;-27
2023/07/30 01:34:27;;;;;;;1.35;0.45;;;;;;;17.03;81.43;101005.91;4973325;28;101357;-27
2023/07/30 01:36:54;;;;;;;2.13;0.70;;;;;;;17.08;81.39;101018.19;4973541;28;101000;-27
2023/07/30 01:39:20;;;;;;;1.73;0.90;;;;;;;17.11;80.96;101022.53;4975198;28;96775;-27
2023/07/30 01:41:46;;;;;;;4.43;1.13;;;;;;;17.09;81.18;101013.56;4975534;28;96881;-27
2023/07/30 01:44:11;;;;;;;2.92;0.90;;;;;;;17.06;81.53;101020.19;4974862;28;97415;-28
2023/07/30 01:46:36;;;;;;;3.30;1.02;;;;;;;17.05;82.45;101021.19;4974856;28;97894;-27
2023/07/30 01:49:02;;;;;;;2.45;0.77;;;;;;;17.05;80.99;101023.06;4974401;28;96619;-27
2023/07/30 01:51:27;;;;;;;6.40;1.48;;;;;;;17.00;82.58;101015.25;4974763;28;96805;-27
2023/07/30 01:53:53;;;;;;;2.47;0.85;;;;;;;17.01;82.57;101021.59;4974598;28;98832;-27
2023/07/30 01:56:18;;;;;;;3.38;1.23;;;;;;;16.96;82.28;101013.78;4974422;28;98724;-27
2023/07/30 01:58:43;;;;;;;4.80;0.75;;;;;;;16.97;83.51;101023.72;4974655;28;96860;-28
2023/07/30 02:01:09;;;;;;;4.78;0.93;;;;;;;16.95;82.82;101017.53;4974927;28;96811;-27
2023/07/30 02:03:34;;;;;;;1.05;0.63;;;;;;;16.98;82.66;101026.31;4974439;28;98125;-27
2023/07/30 02:06:00;;;;;;;3.30;1.20;;;;;;;16.92;82.98;101036.91;4974891;28;97788;-27
2023/07/30 02:08:25;;;;;;;2.45;0.93;;;;;;;16.86;82.87;101021.91;4973398;28;96796;-27
2023/07/30 02:10:57;;;;;;;3.88;0.90;;;;;;;16.82;84.05;101020.44;4974706;28;96835;-27
2023/07/30 02:13:24;;;;;;;4.28;1.00;;;;;;;16.88;84.03;101019.91;4972549;28;101399;-27
2023/07/30 02:15:49;;;;;;;6.35;1.10;;;;;;;16.84;84.99;101021.16;4972944;28;101430;-27
2023/07/30 02:18:14;;;;;;;7.53;1.10;;;;;;;16.84;84.84;101012.97;4974477;28;96616;-27
2023/07/30 02:20:40;;;;;;;3.50;1.15;;;;;;;16.82;85.55;101009.47;4974797;28;96843;-27
2023/07/30 02:23:05;;;;;;;3.78;0.90;;;;;;;16.81;85.43;101013.22;4974229;28;97880;-28
2023/07/30 02:25:30;;;;;;;3.65;0.80;;;;;;;16.86;84.72;101013.69;4974327;28;97294;-28
2023/07/30 02:27:56;;;;;;;5.68;1.10;;;;;;;16.81;84.94;101007.75;4974079;28;96568;-28
2023/07/30 02:30:22;;;;;;;2.50;0.93;;;;;;;16.88;84.63;101011.72;4973238;28;96727;-27
2023/07/30 02:32:47;;;;;;;4.20;1.08;;;;;;;16.87;84.55;101004.47;4973075;28;98844;-27
2023/07/30 02:35:12;;;;;;;4.60;1.02;;;;;;;16.86;84.86;101005.50;4973863;28;99725;-27
2023/07/30 02:37:38;;;;;;;2.83;0.95;;;;;;;16.89;84.59;101005.22;4973693;28;96674;-27
2023/07/30 02:40:04;;;;;;;2.42;0.70;;;;;;;16.86;86.48;101010.09;4972601;28;96865;-26
2023/07/30 02:42:31;;;;;;;4.72;0.95;;;;;;;16.84;86.15;101006.63;4972555;28;100974;-27
2023/07/30 02:44:56;;;;;;;4.20;1.13;;;;;;;16.83;85.69;100999.41;4972377;28;99971;-27
2023/07/30 02:47:21;;;;;;;6.47;1.42;;;;;;;16.85;85.95;101014.72;4973988;28;96768;-27
2023/07/30 02:49:47;;;;;;;7.15;1.27;;;;;;;16.84;85.46;101007.50;4974176;28;96821;-27
2023/07/30 02:52:12;;;;;;;2.55;0.90;;;;;;;16.82;86.41;101004.00;4974216;28;97334;-27
2023/07/30 02:54:38;;;;;;;5.25;0.80;;;;;;;16.85;85.60;101000.16;4974113;28;97392;-27
2023/07/30 02:57:03;;;;;;;6.60;1.25;;;;;;;16.93;85.78;101016.78;4973477;28;96765;-27
2023/07/30 02:59:28;;;;;;;6.90;1.30;;;;;;;16.89;85.46;100993.41;4973363;28;96931;-27
2023/07/30 03:01:54;;;;;;;3.40;1.00;;;;;;;16.87;86.99;101007.22;4972734;28;99397;-28
2023/07/30 03:04:19;;;;;;;4.00;1.23;;;;;;;16.89;85.99;100998.88;4973802;28;97772;-29
2023/07/30 03:06:45;;;;;;;2.65;0.90;;;;;;;16.93;85.46;101006.69;4973765;28;97241;-32
2023/07/30 03:09:10;;;;;;;8.43;1.10;;;;;;;16.89;86.34;100993.41;4972156;28;96880;-27
2023/07/30 03:11:35;;;;;;;7.20;1.25;;;;;;;16.94;86.30;100999.34;4973626;28;98076;-27
2023/07/30 03:14:01;;;;;;;4.00;0.80;;;;;;;16.97;86.11;101002.72;4973319;28;99886;-27
2023/07/30 03:16:26;;;;;;;3.08;1.10;;;;;;;16.95;86.54;101006.59;4973570;28;96647;-28
2023/07/30 03:18:51;;;;;;;2.92;0.85;;;;;;;16.92;87.28;101010.47;4973734;28;96823;-27
2023/07/30 03:21:17;;;;;;;5.55;1.25;;;;;;;16.84;87.37;100991.06;4973380;28;98102;-27
2023/07/30 03:23:44;;;;;;;5.90;1.10;;;;;;;16.87;87.00;101001.75;4973309;28;97806;-27
2023/07/30 03:26:10;;;;;;;5.22;1.15;;;;;;;16.82;88.11;101001.28;4971374;28;98424;-27
2023/07/30 03:28:35;;;;;;;6.25;1.58;;;;;;;16.81;88.65;101006.91;4972633;28;97304;-27
2023/07/30 03:31:00;;;;;;;6.72;1.15;;;;;;;16.79;88.61;101004.28;4973269;28;97941;-26
2023/07/30 03:33:26;;;;;;;2.88;1.02;;;;;;;16.77;87.88;101007.09;4973254;28;97237;-27
2023/07/30 03:35:51;;;;;;;1.63;0.75;;;;;;;16.85;87.99;101008.34;4973509;28;97811;-27
2023/07/30 03:38:17;;;;;;;2.03;0.85;;;;;;;16.81;88.26;101007.75;4972970;28;97007;-27
2023/07/30 03:40:42;;;;;;;4.57;0.90;;;;;;;16.73;89.19;101002.03;4973275;28;97934;-27
2023/07/30 03:43:07;;;;;;;3.10;1.02;;;;;;;16.80;88.73;101011.47;4972596;28;97930;-27
2023/07/30 03:45:33;;;;;;;4.00;0.98;;;;;;;16.81;89.08;101015.97;4973080;28;96811;-27
2023/07/30 03:47:58;;;;;;;5.00;1.00;;;;;;;16.78;89.37;101008.00;4973139;28;96772;-27
2023/07/30 03:50:23;;;;;;;5.90;1.45;;;;;;;16.73;89.50;101010.22;4972567;28;97534;-28
2023/07/30 03:52:49;;;;;;;7.18;1.27;;;;;;;16.76;89.50;101016.31;4971465;28;99544;-26
2023/07/30 03:55:15;;;;;;;4.18;0.60;;;;;;;16.78;89.75;101024.41;4973080;28;96506;-27
2023/07/30 03:57:40;;;;;;;4.03;1.52;;;;;;;16.79;89.50;101020.69;4972761;28;96868;-27
2023/07/30 04:00:07;;;;;;;7.20;1.38;;;;;;;16.74;88.59;101010.09;4971086;28;98367;-27
2023/07/30 04:02:32;;;;;;;3.92;1.08;;;;;;;16.80;89.84;101019.69;4971219;28;100876;-27
2023/07/30 04:04:57;;;;;;;3.20;0.95;;;;;;;16.76;90.09;101016.31;4972732;28;96585;-27
2023/07/30 04:07:23;;;;;;;3.85;0.98;;;;;;;16.81;89.42;101029.66;4971748;28;96928;-27
2023/07/30 04:09:48;;;;;;;2.42;0.82;;;;;;;16.78;89.36;101021.69;4972790;28;98420;-27
2023/07/30 04:12:15;;;;;;;5.30;1.13;;;;;;;16.80;89.65;101027.03;4973162;28;96640;-27
2023/07/30 04:14:40;;;;;;;6.00;1.30;;;;;;;16.84;89.78;101031.25;4971827;28;96698;-28
2023/07/30 04:17:05;;;;;;;3.10;0.88;;;;;;;16.81;89.38;101024.19;4972882;28;96893;-27
2023/07/30 04:19:31;;;;;;;4.38;1.25;;;;;;;16.83;89.29;101019.44;4972520;28;97333;-27
2023/07/30 04:21:56;;;;;;;3.78;1.25;;;;;;;16.85;89.83;101024.78;4972262;28;99126;-27
2023/07/30 04:24:21;;;;;;;4.72;0.82;;;;;;;16.85;90.48;101030.25;4973062;28;96470;-27
2023/07/30 04:26:47;;;;;;;5.75;1.15;;;;;;;16.84;89.44;101025.78;4971583;28;96842;-29
2023/07/30 04:29:13;;;;;;;6.07;1.38;;;;;;;16.84;89.98;101029.38;4972041;28;97969;-27
2023/07/30 04:31:39;;;;;;;6.97;1.08;;;;;;;16.82;89.64;101025.91;4971243;28;100847;-26
2023/07/30 04:34:04;;;;;;;6.55;1.15;;;;;;;16.82;89.31;101030.50;4972478;28;96486;-26
2023/07/30 04:36:30;;;;;;;6.75;1.40;;;;;;;16.87;88.87;101033.72;4972582;28;96769;-28
2023/07/30 04:38:55;;;;;;;4.07;1.33;;;;;;;16.93;89.12;101038.69;4972275;28;97323;-27
2023/07/30 04:41:20;;;;;;;6.18;1.10;;;;;;;16.86;89.39;101035.59;4972285;28;97801;-28
2023/07/30 04:43:46;;;;;;;2.20;0.90;;;;;;;16.90;89.93;101045.28;4972175;28;96560;-28
2023/07/30 04:46:11;;;;;;;2.80;1.10;;;;;;;16.86;90.02;101034.72;4972142;28;96833;-27
2023/07/30 04:48:37;;;;;;;6.32;1.00;;;;;;;16.83;90.13;101041.34;4972073;28;98418;-27
2023/07/30 04:51:03;;;;;;;5.38;1.40;;;;;;;16.77;91.26;101033.59;4972381;28;97295;-27
2023/07/30 04:53:28;;;;;;;5.15;1.25;;;;;;;16.72;92.25;101044.94;4970954;28;96711;-27
2023/07/30 04:55:57;;;;;;;5.32;1.65;;;;;;;16.79;91.20;101041.72;4974780;28;96750;-27
2023/07/30 04:58:23;;;;;;;7.63;1.30;;;;;;;16.73;91.76;101037.59;4973831;28;100991;-27
2023/07/30 05:00:48;;;;;;;3.55;0.93;;;;;;;16.73;92.76;101043.94;4975558;28;97277;-27
2023/07/30 05:03:14;;;;;;;4.20;0.82;;;;;;;16.73;91.30;101037.59;4975126;28;96713;-28
2023/07/30 05:05:40;;;;;;;3.90;1.23;;;;;;;16.72;92.23;101044.06;4975756;28;96774;-30
2023/07/30 05:08:05;;;;;;;4.22;1.02;;;;;;;16.75;92.15;101046.53;4975590;28;98150;-28
2023/07/30 05:10:30;;;;;;;6.78;1.40;;;;;;;16.76;91.35;101034.63;4975495;28;97210;-28
2023/07/30 05:12:56;;;;;;;2.75;0.93;;;;;;;16.80;91.66;101041.56;4975612;28;96551;-27
2023/07/30 05:15:21;;;;;;;5.32;1.50;;;;;;;16.76;91.75;101042.81;4975462;28;96806;-26
2023/07/30 05:17:46;;;;;;;7.13;1.58;;;;;;;16.76;91.60;101042.81;4975244;28;99282;-27
2023/07/30 05:20:12;;;;;;;4.25;1.00;;;;;;;16.77;92.21;101050.00;4975868;28;97806;-27
2023/07/30 05:22:37;;;;;;;3.72;1.10;;;;;;;16.74;91.29;101050.28;4975611;28;96488;-27
2023/07/30 05:25:03;;;;;;;5.90;1.13;;;;;;;16.80;91.87;101057.13;4975517;28;96757;-28
2023/07/30 05:27:28;;;;;;;2.38;0.80;;;;;;;16.78;92.22;101054.50;4974439;28;99243;-27
2023/07/30 05:29:55;;;;;;;5.15;1.10;;;;;;;16.75;91.33;101047.41;4974614;28;99918;-27
2023/07/30 05:32:20;;;;;;;5.65;1.33;;;;;;;16.78;91.61;101046.31;4973910;28;96639;-27
2023/07/30 05:34:46;;;;;;;7.40;1.77;;;;;;;16.77;91.30;101052.75;4975680;28;96810;-29
2023/07/30 05:37:11;;;;;;;4.47;1.15;;;;;;;16.86;90.87;101051.16;4974896;28;99087;-27
2023/07/30 05:39:36;;;;;;;6.15;1.20;;;;;;;16.87;90.71;101051.00;4975100;28;97727;-27
2023/07/30 05:42:02;;;;;;;4.03;1.25;;;;;;;16.87;91.01;101056.47;4974940;28;96611;-27
2023/07/30 05:44:27;;;;;;;3.75;0.98;;;;;;;16.86;91.33;101056.63;4975439;28;96865;-27
2023/07/30 05:46:53;;;;;;;4.50;1.42;;;;;;;16.90;91.07;101055.34;4975031;28;97315;-27
2023/07/30 05:49:19;;;;;;;5.55;1.08;;;;;;;16.86;92.01;101060.22;4974698;28;99235;-27
2023/07/30 05:51:44;;;;;;;3.03;0.85;;;;;;;16.84;91.66;101051.25;4973031;28;96988;-27
2023/07/30 05:54:10;;;;;;;5.07;1.25;;;;;;;16.86;91.33;101052.00;4974682;28;96731;-27
2023/07/30 05:56:35;;;;;;;4.93;1.17;;;;;;;16.89;91.84;101054.47;4974685;28;97326;-27
2023/07/30 05:59:01;;;;;;;8.10;1.35;;;;;;;16.96;91.32;101052.09;4974419;28;97388;-27
2023/07/30 06:01:26;;;;;;;4.22;1.42;;;;;;;16.97;90.53;101049.22;4974932;28;96727;-27
2023/07/30 06:03:51;;;;;;;2.35;0.95;;;;;;;17.10;89.71;101050.91;4974658;28;96810;-28
2023/07/30 06:06:17;;;;;;;3.22;1.02;;;;;;;17.21;90.36;101056.34;4973766;28;97880;-27
2023/07/30 06:08:42;;;;;;;5.53;1.27;;;;;;;17.27;89.47;101041.25;4974767;28;97832;-27
2023/07/30 06:11:08;;;;;;;4.88;1.00;;;;;;;17.23;89.61;101045.25;4974453;28;96663;-27
2023/07/30 06:13:34;;;;;;;3.88;1.13;;;;;;;17.26;89.57;101054.06;4974528;28;96780;-27
2023/07/30 06:15:59;;;;;;;4.07;1.35;;;;;;;17.21;89.92;101056.34;4973663;28;99827;-27
2023/07/30 06:18:24;;;;;;;6.60;1.00;;;;;;;17.20;90.14;101052.72;4974329;28;98848;-28
2023/07/30 06:20:50;;;;;;;4.78;1.77;;;;;;;17.17;89.39;101049.38;4974743;28;96591;-27
2023/07/30 06:23:15;;;;;;;3.63;0.88;;;;;;;17.22;89.96;101054.47;4974908;28;96580;-27
2023/07/30 06:25:40;;;;;;;3.50;1.02;;;;;;;17.17;89.80;101052.97;4973053;28;98886;-27
2023/07/30 06:28:06;;;;;;;6.28;1.63;;;;;;;17.12;89.76;101038.84;4973433;28;97773;-28
2023/07/30 06:30:36;;;;;;;4.97;0.85;;;;;;;17.13;89.96;101056.13;4974232;28;96707;-27
2023/07/30 06:33:02;;;;;;;5.22;1.33;;;;;;;17.11;89.92;101049.91;4973232;28;96899;-28
2023/07/30 06:35:27;;;;;;;5.82;1.17;;;;;;;17.10;89.63;101051.78;4974167;28;97800;-27
2023/07/30 06:37:52;;;;;;;5.78;0.95;;;;;;;17.10;89.73;101062.72;4974103;28;97972;-27
2023/07/30 06:40:18;;;;;;;11.93;1.20;;;;;;;17.10;89.66;101057.25;4973604;28;96683;-26
2023/07/30 06:42:43;;;;;;;2.80;0.63;;;;;;;17.09;89.44;101068.31;4973704;28;96801;-27
2023/07/30 06:45:09;;;;;;;2.55;0.98;;;;;;;17.06;89.41;101072.19;4973622;28;99346;-29
2023/07/30 06:47:34;;;;;;;5.45;1.17;;;;;;;17.07;89.44;101073.09;4972528;28;100867;-27
2023/07/30 06:50:00;;;;;;;3.00;1.08;;;;;;;17.02;89.69;101076.22;4974149;28;97259;-27
2023/07/30 06:52:25;;;;;;;5.18;1.17;;;;;;;17.01;89.48;101063.50;4974063;28;96756;-27
2023/07/30 06:54:50;;;;;;;2.10;0.90;;;;;;;16.97;90.15;101068.41;4973907;28;97461;-27
2023/07/30 06:57:16;;;;;;;3.20;0.98;;;;;;;16.96;90.34;101066.63;4973929;28;97750;-26
2023/07/30 06:59:41;;;;;;;4.20;0.73;;;;;;;17.02;89.53;101072.59;4973567;28;96850;-27
2023/07/30 07:02:07;;;;;;;2.75;1.25;;;;;;;17.07;89.63;101070.34;4973829;28;96673;-32
2023/07/30 07:04:32;;;;;;;7.50;0.90;;;;;;;17.27;89.39;101074.09;4973113;28;99235;-28
2023/07/30 07:06:57;;;;;;;4.22;1.08;;;;;;;17.41;88.62;101071.03;4973735;28;97182;-27
2023/07/30 07:09:23;;;;;;;2.67;0.90;;;;;;;17.48;88.66;101065.91;4973775;28;96533;-27
2023/07/30 07:11:48;;;;;;;2.58;1.02;;;;;;;17.67;87.51;101059.66;4973704;28;96966;-27
2023/07/30 07:14:13;;;;;;;4.53;1.08;;;;;;;17.88;86.34;101062.41;4973588;28;97318;-27
2023/07/30 07:16:39;;;;;;;6.15;1.42;;;;;;;18.04;85.39;101066.38;4973433;28;97294;-27
2023/07/30 07:19:05;;;;;;;5.65;1.65;;;;;;;17.99;85.15;101062.31;4973835;28;96541;-27
2023/07/30 07:21:30;;;;;;;4.80;1.20;;;;;;;17.93;85.55;101079.31;4973642;28;96701;-26
2023/07/30 07:23:55;;;;;;;2.83;0.95;;;;;;;17.92;85.59;101063.84;4973498;28;97335;-27
2023/07/30 07:26:21;;;;;;;2.63;0.88;;;;;;;17.95;85.45;101063.59;4973342;28;98284;-28
2023/07/30 07:28:46;;;;;;;4.90;1.17;;;;;;;17.96;84.93;101066.19;4972191;28;96754;-27
2023/07/30 07:31:11;;;;;;;2.28;1.00;;;;;;;17.99;84.88;101082.34;4973178;28;96877;-27
2023/07/30 07:33:37;;;;;;;4.47;1.00;;;;;;;18.01;85.19;101076.75;4973379;28;97530;-27
2023/07/30 07:36:07;;;;;;;6.38;1.70;;;;;;;18.14;85.39;101080.13;4973012;28;99151;-27
2023/07/30 07:38:33;;;;;;;5.18;1.15;;;;;;;18.00;85.02;101084.09;4971945;28;96749;-27
2023/07/30 07:40:59;;;;;;;3.35;1.25;;;;;;;17.88;85.45;101087.09;4971908;28;96846;-27
2023/07/30 07:43:24;;;;;;;5.72;1.63;;;;;;;17.85;86.39;101087.34;4971647;28;100841;-27
2023/07/30 07:45:50;;;;;;;5.22;1.20;;;;;;;17.78;86.49;101089.72;4973492;28;97800;-27
2023/07/30 07:48:15;;;;;;;4.88;0.95;;;;;;;17.80;86.91;101102.34;4973264;28;96446;-27
2023/07/30 07:50:40;;;;;;;2.85;0.82;;;;;;;17.82;86.55;101100.28;4973167;28;96863;-27
2023/07/30 07:53:06;;;;;;;2.45;0.57;;;;;;;17.87;86.24;101093.56;4972643;28;97452;-27
2023/07/30 07:55:31;;;;;;;4.53;1.35;;;;;;;17.91;86.01;101097.75;4972923;28;97336;-27
2023/07/30 07:57:57;;;;;;;4.30;1.17;;;;;;;17.87;85.92;101099.03;4972285;28;96848;-27
2023/07/30 08:00:22;;;;;;;6.32;1.17;;;;;;;17.91;85.76;101106.84;4972937;28;97485;-27
2023/07/30 08:02:47;;;;;;;5.75;1.17;;;;;;;17.94;86.08;101100.22;4972853;28;98043;-27
2023/07/30 08:05:13;;;;;;;5.30;0.93;;;;;;;17.97;85.24;101105.44;4972947;28;97336;-27
2023/07/30 08:07:39;;;;;;;4.72;1.17;;;;;;;18.07;84.56;101106.38;4971521;28;96570;-27
2023/07/30 08:10:05;;;;;;;1.80;0.80;;;;;;;18.12;84.79;101097.72;4972953;28;96783;-27
2023/07/30 08:12:32;;;;;;;4.18;0.98;;;;;;;18.19;84.33;101099.78;4971110;28;100888;-27
2023/07/30 08:14:58;;;;;;;5.07;1.63;;;;;;;18.13;83.89;101094.84;4971288;28;100980;-27
2023/07/30 08:17:24;;;;;;;4.35;1.13;;;;;;;18.13;84.16;101114.03;4970909;28;96946;-27
2023/07/30 08:19:49;;;;;;;3.55;0.90;;;;;;;18.04;83.78;101106.63;4972552;28;96805;-27
2023/07/30 08:22:15;;;;;;;2.80;1.00;;;;;;;18.03;84.15;101102.16;4972563;28;98206;-27
2023/07/30 08:24:40;;;;;;;4.70;1.15;;;;;;;17.95;84.14;101107.47;4972428;28;97823;-27
2023/07/30 08:27:06;;;;;;;6.10;0.95;;;;;;;17.89;85.22;101105.25;4972527;28;96473;-27
2023/07/30 08:29:31;;;;;;;3.38;1.25;;;;;;;17.83;86.03;101098.44;4971399;28;96798;-27
2023/07/30 08:31:56;;;;;;;5.68;1.30;;;;;;;17.79;85.98;101097.81;4972576;28;98408;-29
2023/07/30 08:34:22;;;;;;;3.22;1.00;;;;;;;17.94;86.18;101114.78;4972880;28;97313;-27
2023/07/30 08:36:48;;;;;;;5.50;1.08;;;;;;;18.06;86.12;101112.84;4972378;28;96481;-27
2023/07/30 08:39:14;;;;;;;1.85;0.80;;;;;;;18.22;84.79;101104.13;4972483;28;96754;-27
2023/07/30 08:41:39;;;;;;;2.67;0.93;;;;;;;18.40;83.87;101109.81;4970402;28;101376;-27
2023/07/30 08:44:05;;;;;;;2.95;0.65;;;;;;;18.61;83.13;101105.09;4972398;28;98008;-26
2023/07/30 08:46:30;;;;;;;4.82;1.00;;;;;;;18.73;81.45;101100.38;4972403;28;96445;-28
2023/07/30 08:48:57;;;;;;;4.50;1.20;;;;;;;18.90;79.42;101093.34;4972513;28;96824;-27
2023/07/30 08:51:24;;;;;;;1.98;0.73;;;;;;;19.01;79.69;101104.19;4971987;28;99763;-27
2023/07/30 08:53:57;;;;;;;4.32;0.75;;;;;;;19.20;78.92;101106.09;4971836;28;99410;-27
2023/07/30 08:56:22;;;;;;;4.85;0.82;;;;;;;19.36;77.06;101102.78;4970553;28;96769;-27
2023/07/30 08:58:51;;;;;;;3.70;0.82;;;;;;;19.59;76.51;101096.94;4972411;28;96840;-27
2023/07/30 09:01:18;;;;;;;4.03;0.80;;;;;;;19.79;75.03;101109.69;4971848;28;99817;-30
2023/07/30 09:03:43;;;;;;;1.30;0.50;;;;;;;19.96;74.10;101109.94;4970610;28;100884;-27
2023/07/30 09:06:09;;;;;;;3.60;0.90;;;;;;;20.19;73.36;101113.19;4970231;28;97012;-27
2023/07/30 09:08:34;;;;;;;3.15;0.70;;;;;;;20.13;71.71;101104.50;4971822;28;96919;-27
2023/07/30 09:11:10;;;;;;;1.67;0.50;;;;;;;20.12;70.37;101118.44;4971926;28;99218;-27
2023/07/30 09:13:40;;;;;;;2.25;0.50;;;;;;;19.88;71.82;101117.06;4970433;28;101199;-27
2023/07/30 09:16:11;;;;;;;1.42;0.38;;;;;;;19.67;72.82;101114.44;4970739;28;96609;-27
2023/07/30 09:18:45;;;;;;;3.60;1.10;;;;;;;19.51;71.81;101122.41;4970713;28;96765;-28
2023/07/30 09:21:12;;;;;;;2.78;1.13;;;;;;;19.31;73.24;101121.56;4971783;28;98017;-27
2023/07/30 09:23:42;;;;;;;2.53;0.80;;;;;;;19.15;71.92;101130.38;4970829;28;100719;-27
2023/07/30 09:26:08;;;;;;;1.55;0.52;;;;;;;19.05;74.70;101127.63;4969756;28;96780;-27
2023/07/30 09:28:33;;;;;;;6.72;0.80;;;;;;;18.99;72.80;101132.81;4967724;28;97086;-28
2023/07/30 09:31:07;;;;;;;2.70;0.82;;;;;;;18.82;72.54;101132.50;4969053;28;97597;-29
2023/07/30 09:33:33;;;;;;;4.57;0.68;;;;;;;18.80;72.74;101141.88;4967454;28;100877;-29
2023/07/30 09:36:02;;;;;;;2.08;0.77;;;;;;;19.27;72.44;101140.22;4967968;28;97111;-29
2023/07/30 09:38:30;;;;;;;5.30;0.65;;;;;;;19.26;71.65;101138.50;4969451;28;97042;-30
2023/07/30 09:41:00;;;;;;;6.05;1.20;;;;;;;19.24;72.01;101156.13;4968282;28;101320;-32
2023/07/30 09:43:29;;;;;;;1.73;0.60;;;;;;;19.13;71.39;101154.38;4972250;28;100531;-28
2023/07/30 09:46:01;;;;;;;1.77;0.45;;;;;;;19.16;72.28;101153.22;4972996;28;96604;-30
2023/07/30 09:48:27;;;;;;;3.13;0.50;;;;;;;19.46;71.33;101147.59;4971439;28;96723;-30
2023/07/30 09:50:53;;;;;;;2.30;0.57;;;;;;;19.73;70.03;101157.00;4970856;28;102407;-29
2023/07/30 09:53:20;;;;;;;4.65;1.02;;;;;;;19.66;70.74;101162.22;4973074;28;99195;-27
2023/07/30 09:55:45;;;;;;;4.90;0.68;;;;;;;19.53;69.82;101161.63;4971609;28;97114;-29
2023/07/30 09:58:12;;;;;;;1.95;0.57;;;;;;;19.75;68.27;101159.63;4973485;28;96880;-30
2023/07/30 10:00:37;;;;;;;2.83;0.73;;;;;;;20.19;67.89;101157.19;4973324;28;97952;-27
2023/07/30 10:03:05;;;;;;;0.60;0.38;;;;;;;20.49;66.91;101143.16;4974454;28;97735;-27
2023/07/30 10:05:36;;;;;;;1.63;0.43;;;;;;;21.04;66.64;101166.25;4973286;28;96821;-27
2023/07/30 10:08:20;;;;;;;3.45;0.73;;;;;;;21.21;65.43;101173.66;4988954;28;96732;-26
2023/07/30 10:10:45;;;;;;;1.70;0.73;;;;;;;20.92;65.25;101160.94;4994365;28;99437;-27
2023/07/30 10:13:12;;;;;;;1.15;0.43;;;;;;;20.90;65.19;101162.13;4993090;28;100891;-27
2023/07/30 10:15:38;;;;;;;0.52;0.32;;;;;;;21.29;64.99;101168.25;4993038;28;96711;-27
2023/07/30 10:18:04;;;;;;;2.13;0.73;;;;;;;21.11;64.24;101165.47;4994711;28;96760;-27
2023/07/30 10:20:31;;;;;;;1.95;0.57;;;;;;;20.94;65.18;101177.31;4993723;28;98071;-27
2023/07/30 10:22:58;;;;;;;1.48;0.70;;;;;;;20.82;64.77;101173.03;4992873;28;100952;-26
2023/07/30 10:25:30;;;;;;;1.83;0.55;;;;;;;20.70;64.52;101184.25;4992828;28;96618;-27
2023/07/30 10:27:56;;;;;;;;;;;;;;;20.99;63.57;101180.47;4993669;28;96971;-27
2023/07/30 10:30:21;;;;;;;1.65;0.30;;;;;;;20.99;64.12;101178.59;4994195;28;97843;-27
2023/07/30 10:32:59;;;;;;;4.13;0.60;;;;;;;20.76;63.34;101183.66;4994118;28;96822;-27
2023/07/30 10:35:45;;;;;;;2.20;0.63;;;;;;;20.48;63.92;101191.00;4975980;28;96815;-27
2023/07/30 10:38:17;;;;;;;2.33;0.80;;;;;;;20.28;64.90;101192.06;4974302;28;96774;-27
2023/07/30 10:41:10;;;;;;;2.47;0.50;;;;;;;20.07;65.74;101184.00;4973796;28;99377;-27
2023/07/30 10:43:38;;;;;;;3.00;0.50;;;;;;;20.05;66.64;101194.31;4974752;28;101288;-27
2023/07/30 10:46:03;;;;;;;3.45;0.70;;;;;;;20.08;66.86;101200.38;4993189;28;96613;-27
2023/07/30 10:48:31;;;;;;;5.38;0.82;;;;;;;20.08;67.12;101196.75;4993957;28;96768;-27
2023/07/30 10:50:57;;;;;;;2.72;0.57;;;;;;;20.04;67.21;101209.06;4993578;28;99310;-26
2023/07/30 10:53:22;;;;;;;2.35;0.70;;;;;;;19.99;67.53;101216.88;4993291;28;96710;-27
2023/07/30 10:55:47;;;;;;;1.08;0.50;;;;;;;19.77;67.49;101207.94;4993838;28;96744;-28
2023/07/30 10:58:14;;;;;;;3.80;0.63;;;;;;;19.67;67.38;101212.53;4993611;28;96660;-29
2023/07/30 11:00:39;;;;;;;3.72;0.93;;;;;;;19.70;68.59;101206.78;4992231;28;101406;-29
2023/07/30 11:03:04;;;;;;;7.30;0.77;;;;;;;19.75;68.44;101215.44;4993484;28;98891;-27
2023/07/30 11:05:30;;;;;;;1.15;0.47;;;;;;;19.79;69.22;101216.91;4993890;28;96512;-27
2023/07/30 11:07:56;;;;;;;0.52;0.32;;;;;;;19.82;67.36;101211.09;4993696;28;96749;-27
2023/07/30 11:10:21;;;;;;;1.48;0.43;;;;;;;19.83;67.93;101222.97;4992732;28;99488;-26
2023/07/30 11:12:52;;;;;;;4.72;0.90;;;;;;;19.91;68.09;101204.72;4993233;28;99179;-29
2023/07/30 11:15:17;;;;;;;2.92;0.75;;;;;;;20.04;67.29;101209.91;4993343;28;97675;-26
2023/07/30 11:17:45;;;;;;;1.02;0.35;;;;;;;20.17;66.31;101217.00;4993213;28;96645;-27
2023/07/30 11:20:26;;;;;;;2.15;0.52;;;;;;;20.30;65.21;101223.03;4992026;28;99370;-27